createdAt,value
2017-04-06T00:00:08.703Z,1011.5
2017-04-06T00:01:10.523Z,1011.5
2017-04-06T00:02:12.323Z,1011.4
2017-04-06T00:03:14.102Z,1011.5
2017-04-06T00:04:16.338Z,1011.5
2017-04-06T00:05:18.122Z,1011.5
2017-04-06T00:06:19.942Z,1011.5
2017-04-06T00:07:21.741Z,1011.5
2017-04-06T00:08:23.548Z,1011.5
2017-04-06T00:09:25.540Z,1011.5
2017-04-06T00:10:27.668Z,1011.5
2017-04-06T00:11:29.666Z,1011.6
2017-04-06T00:12:31.457Z,1011.4
2017-04-06T00:13:33.251Z,1011.5
2017-04-06T00:14:35.035Z,1011.5
2017-04-06T00:15:36.900Z,1011.5
2017-04-06T00:16:38.688Z,1011.5
2017-04-06T00:17:40.689Z,1011.5
2017-04-06T00:18:42.472Z,1011.5
2017-04-06T00:19:44.266Z,1011.5
2017-04-06T00:20:46.062Z,1011.4
2017-04-06T00:21:47.927Z,1011.5
2017-04-06T00:22:49.722Z,1011.4
2017-04-06T00:23:51.521Z,1011.5
2017-04-06T00:24:53.315Z,1011.5
2017-04-06T00:25:55.109Z,1011.4
2017-04-06T00:26:56.908Z,1011.5
2017-04-06T00:27:58.829Z,1011.5
2017-04-06T00:29:00.616Z,1011.5
2017-04-06T00:30:02.403Z,1011.5
2017-04-06T00:31:04.200Z,1011.5
2017-04-06T00:32:05.992Z,1011.4
2017-04-06T00:33:08.120Z,1011.4
2017-04-06T00:34:10.244Z,1011.4
2017-04-06T00:35:12.392Z,1011.4
2017-04-06T00:36:14.285Z,1011.4
2017-04-06T00:37:16.073Z,1011.4
2017-04-06T00:38:17.862Z,1011.4
2017-04-06T00:39:19.649Z,1011.4
2017-04-06T00:40:21.788Z,1011.4
2017-04-06T00:41:23.577Z,1011.3
2017-04-06T00:42:25.497Z,1011.4
2017-04-06T00:43:27.285Z,1011.4
2017-04-06T00:44:29.080Z,1011.4
2017-04-06T00:45:30.866Z,1011.5
2017-04-06T00:46:32.646Z,1011.4
2017-04-06T00:47:34.454Z,1011.5
2017-04-06T00:48:36.360Z,1011.5
2017-04-06T00:49:38.160Z,1011.5
2017-04-06T00:50:39.965Z,1011.5
2017-04-06T00:51:41.746Z,1011.5
2017-04-06T00:52:43.546Z,1011.6
2017-04-06T00:53:45.344Z,1011.5
2017-04-06T00:54:47.294Z,1011.6
2017-04-06T00:55:49.083Z,1011.6
2017-04-06T00:56:50.887Z,1011.6
2017-04-06T00:57:52.673Z,1011.6
2017-04-06T00:58:54.480Z,1011.6
2017-04-06T00:59:56.263Z,1011.6
2017-04-06T01:00:58.274Z,1011.6
2017-04-06T01:02:00.066Z,1011.6
2017-04-06T01:03:02.201Z,1011.5
2017-04-06T01:04:03.996Z,1011.5
2017-04-06T01:05:05.790Z,1011.5
2017-04-06T01:06:07.593Z,1011.5
2017-04-06T01:07:09.482Z,1011.5
2017-04-06T01:08:11.282Z,1011.5
2017-04-06T01:09:13.081Z,1011.6
2017-04-06T01:10:14.877Z,1011.6
2017-04-06T01:11:16.668Z,1011.5
2017-04-06T01:12:18.457Z,1011.5
2017-04-06T01:13:20.343Z,1011.5
2017-04-06T01:14:22.132Z,1011.5
2017-04-06T01:15:23.915Z,1011.5
2017-04-06T01:16:25.716Z,1011.5
2017-04-06T01:17:27.838Z,1011.5
2017-04-06T01:18:29.650Z,1011.5
2017-04-06T01:19:31.641Z,1011.6
2017-04-06T01:20:33.762Z,1011.7
2017-04-06T01:21:35.897Z,1011.6
2017-04-06T01:22:37.678Z,1011.7
2017-04-06T01:23:39.476Z,1011.6
2017-04-06T01:24:41.440Z,1011.6
2017-04-06T01:25:43.227Z,1011.7
2017-04-06T01:26:45.221Z,1011.7
2017-04-06T01:27:46.998Z,1011.7
2017-04-06T01:28:48.814Z,1011.7
2017-04-06T01:29:50.629Z,1011.7
2017-04-06T01:30:52.424Z,1011.7
2017-04-06T01:31:54.232Z,1011.7
2017-04-06T01:32:56.013Z,1011.7
2017-04-06T01:33:57.818Z,1011.7
2017-04-06T01:34:59.609Z,1011.8
2017-04-06T01:36:01.399Z,1011.8
2017-04-06T01:37:03.182Z,1011.7
2017-04-06T01:38:05.487Z,1011.8
2017-04-06T01:39:07.277Z,1011.8
2017-04-06T01:40:09.069Z,1011.7
2017-04-06T01:41:11.187Z,1011.8
2017-04-06T01:42:12.983Z,1011.8
2017-04-06T01:43:15.015Z,1011.8
2017-04-06T01:44:16.799Z,1011.8
2017-04-06T01:45:18.586Z,1011.9
2017-04-06T01:46:20.382Z,1011.8
2017-04-06T01:47:22.171Z,1011.9
2017-04-06T01:48:23.963Z,1011.7
2017-04-06T01:49:25.764Z,1011.9
2017-04-06T01:50:27.553Z,1011.9
2017-04-06T01:51:29.342Z,1011.8
2017-04-06T01:52:31.399Z,1011.9
2017-04-06T01:53:33.192Z,1011.9
2017-04-06T01:54:34.976Z,1011.8
2017-04-06T01:55:36.763Z,1011.9
2017-04-06T01:56:38.558Z,1011.9
2017-04-06T01:57:40.340Z,1011.9
2017-04-06T01:58:42.145Z,1011.9
2017-04-06T01:59:43.930Z,1011.8
2017-04-06T02:00:45.720Z,1011.9
2017-04-06T02:01:47.499Z,1011.9
2017-04-06T02:02:49.303Z,1012
2017-04-06T02:03:51.086Z,1012
2017-04-06T02:04:52.882Z,1012
2017-04-06T02:05:54.670Z,1012.1
2017-04-06T02:06:56.462Z,1012
2017-04-06T02:07:58.259Z,1011.9
2017-04-06T02:09:00.057Z,1012
2017-04-06T02:10:01.844Z,1012
2017-04-06T02:11:03.639Z,1012
2017-04-06T02:12:05.437Z,1012
2017-04-06T02:13:07.237Z,1012
2017-04-06T02:14:09.021Z,1012.1
2017-04-06T02:15:11.154Z,1012.1
2017-04-06T02:16:12.944Z,1012.1
2017-04-06T02:17:14.737Z,1012.1
2017-04-06T02:18:16.525Z,1012.1
2017-04-06T02:19:18.312Z,1012
2017-04-06T02:20:20.093Z,1012
2017-04-06T02:21:22.226Z,1012.1
2017-04-06T02:22:24.015Z,1012.1
2017-04-06T02:23:25.807Z,1012.1
2017-04-06T02:24:27.597Z,1012
2017-04-06T02:25:29.392Z,1012
2017-04-06T02:26:31.182Z,1012
2017-04-06T02:27:32.976Z,1012
2017-04-06T02:28:34.767Z,1012
2017-04-06T02:29:36.552Z,1012
2017-04-06T02:30:38.348Z,1012.1
2017-04-06T02:31:40.145Z,1012
2017-04-06T02:32:41.931Z,1012.1
2017-04-06T02:33:43.715Z,1012.1
2017-04-06T02:34:45.524Z,1012.2
2017-04-06T02:35:47.318Z,1012.1
2017-04-06T02:36:49.110Z,1012.2
2017-04-06T02:37:50.904Z,1012.2
2017-04-06T02:38:52.686Z,1012.2
2017-04-06T02:39:54.468Z,1012.2
2017-04-06T02:40:56.258Z,1012.3
2017-04-06T02:41:58.047Z,1012.3
2017-04-06T02:42:59.838Z,1012.3
2017-04-06T02:44:01.630Z,1012.3
2017-04-06T02:45:03.427Z,1012.3
2017-04-06T02:46:05.573Z,1012.3
2017-04-06T02:47:07.352Z,1012.3
2017-04-06T02:48:09.148Z,1012.3
2017-04-06T02:49:10.927Z,1012.3
2017-04-06T02:50:12.732Z,1012.3
2017-04-06T02:51:14.857Z,1012.4
2017-04-06T02:52:16.643Z,1012.4
2017-04-06T02:53:18.430Z,1012.4
2017-04-06T02:54:20.564Z,1012.4
2017-04-06T02:55:22.363Z,1012.4
2017-04-06T02:56:24.159Z,1012.5
2017-04-06T02:57:25.958Z,1012.4
2017-04-06T02:58:28.112Z,1012.4
2017-04-06T02:59:29.911Z,1012.4
2017-04-06T03:00:31.687Z,1012.4
2017-04-06T03:01:33.473Z,1012.4
2017-04-06T03:02:35.254Z,1012.5
2017-04-06T03:03:37.046Z,1012.5
2017-04-06T03:04:38.828Z,1012.5
2017-04-06T03:05:40.621Z,1012.5
2017-04-06T03:06:42.415Z,1012.5
2017-04-06T03:07:44.204Z,1012.4
2017-04-06T03:08:45.991Z,1012.5
2017-04-06T03:09:47.782Z,1012.4
2017-04-06T03:10:49.574Z,1012.5
2017-04-06T03:11:51.370Z,1012.5
2017-04-06T03:12:53.507Z,1012.5
2017-04-06T03:13:55.295Z,1012.6
2017-04-06T03:14:57.089Z,1012.6
2017-04-06T03:15:58.871Z,1012.6
2017-04-06T03:17:00.670Z,1012.6
2017-04-06T03:18:02.798Z,1012.5
2017-04-06T03:19:04.591Z,1012.6
2017-04-06T03:20:06.377Z,1012.7
2017-04-06T03:21:08.166Z,1012.6
2017-04-06T03:22:09.961Z,1012.6
2017-04-06T03:23:11.747Z,1012.6
2017-04-06T03:24:13.543Z,1012.6
2017-04-06T03:25:15.634Z,1012.6
2017-04-06T03:26:17.430Z,1012.6
2017-04-06T03:27:19.234Z,1012.6
2017-04-06T03:28:21.020Z,1012.6
2017-04-06T03:29:22.816Z,1012.6
2017-04-06T03:30:24.596Z,1012.6
2017-04-06T03:31:26.397Z,1012.6
2017-04-06T03:32:28.181Z,1012.6
2017-04-06T03:33:29.968Z,1012.6
2017-04-06T03:34:31.756Z,1012.6
2017-04-06T03:35:33.530Z,1012.6
2017-04-06T03:36:35.329Z,1012.6
2017-04-06T03:37:37.109Z,1012.7
2017-04-06T03:38:38.922Z,1012.8
2017-04-06T03:39:40.714Z,1012.7
2017-04-06T03:40:42.511Z,1012.8
2017-04-06T03:41:44.292Z,1012.8
2017-04-06T03:42:46.085Z,1012.8
2017-04-06T03:43:47.867Z,1012.8
2017-04-06T03:44:49.660Z,1012.8
2017-04-06T03:45:51.446Z,1012.8
2017-04-06T03:46:53.571Z,1012.8
2017-04-06T03:47:55.357Z,1012.9
2017-04-06T03:48:57.155Z,1012.8
2017-04-06T03:49:58.941Z,1012.8
2017-04-06T03:51:00.730Z,1012.9
2017-04-06T03:52:02.859Z,1012.9
2017-04-06T03:53:04.995Z,1012.9
2017-04-06T03:54:06.788Z,1012.9
2017-04-06T03:55:08.573Z,1013
2017-04-06T03:56:10.366Z,1013
2017-04-06T03:57:12.167Z,1013
2017-04-06T03:58:13.956Z,1013.1
2017-04-06T03:59:15.738Z,1013
2017-04-06T04:00:17.519Z,1013
2017-04-06T04:01:19.305Z,1013
2017-04-06T04:02:21.098Z,1013
2017-04-06T04:03:22.891Z,1013
2017-04-06T04:04:24.676Z,1013
2017-04-06T04:05:26.469Z,1013
2017-04-06T04:06:28.251Z,1013
2017-04-06T04:07:30.041Z,1013.1
2017-04-06T04:08:31.829Z,1013
2017-04-06T04:09:33.627Z,1013.1
2017-04-06T04:10:35.415Z,1013
2017-04-06T04:11:37.202Z,1013
2017-04-06T04:12:39.008Z,1013.1
2017-04-06T04:13:40.788Z,1013
2017-04-06T04:14:42.574Z,1013.1
2017-04-06T04:15:44.361Z,1013.1
2017-04-06T04:16:46.140Z,1013.1
2017-04-06T04:17:47.933Z,1013.1
2017-04-06T04:18:49.714Z,1013.2
2017-04-06T04:19:51.510Z,1013.2
2017-04-06T04:20:53.286Z,1013.2
2017-04-06T04:21:55.082Z,1013.2
2017-04-06T04:22:56.858Z,1013.2
2017-04-06T04:23:58.993Z,1013.2
2017-04-06T04:25:00.773Z,1013.2
2017-04-06T04:26:02.566Z,1013.2
2017-04-06T04:27:04.353Z,1013.3
2017-04-06T04:28:06.468Z,1013.3
2017-04-06T04:29:08.253Z,1013.3
2017-04-06T04:30:10.035Z,1013.3
2017-04-06T04:31:11.833Z,1013.3
2017-04-06T04:32:13.617Z,1013.3
2017-04-06T04:33:15.414Z,1013.3
2017-04-06T04:34:17.211Z,1013.3
2017-04-06T04:35:19.007Z,1013.4
2017-04-06T04:36:21.129Z,1013.4
2017-04-06T04:37:22.922Z,1013.4
2017-04-06T04:38:24.702Z,1013.4
2017-04-06T04:39:26.494Z,1013.4
2017-04-06T04:40:28.280Z,1013.4
2017-04-06T04:41:30.078Z,1013.4
2017-04-06T04:42:31.868Z,1013.5
2017-04-06T04:43:33.669Z,1013.4
2017-04-06T04:44:35.462Z,1013.5
2017-04-06T04:45:37.920Z,1013.5
2017-04-06T04:46:40.928Z,1013.5
2017-04-06T04:47:44.765Z,1013.5
2017-04-06T04:48:46.566Z,1013.5
2017-04-06T04:49:48.400Z,1013.5
2017-04-06T04:50:50.196Z,1013.6
2017-04-06T04:51:52.317Z,1013.5
2017-04-06T04:52:54.103Z,1013.5
2017-04-06T04:53:55.885Z,1013.5
2017-04-06T04:54:57.677Z,1013.6
2017-04-06T04:55:59.468Z,1013.6
2017-04-06T04:57:01.308Z,1013.6
2017-04-06T04:58:03.106Z,1013.6
2017-04-06T04:59:04.894Z,1013.6
2017-04-06T05:00:06.690Z,1013.5
2017-04-06T05:01:08.840Z,1013.5
2017-04-06T05:02:11.017Z,1013.5
2017-04-06T05:03:12.813Z,1013.5
2017-04-06T05:04:14.607Z,1013.5
2017-04-06T05:05:16.780Z,1013.6
2017-04-06T05:06:18.606Z,1013.6
2017-04-06T05:07:20.407Z,1013.6
2017-04-06T05:08:22.196Z,1013.6
2017-04-06T05:09:23.986Z,1013.6
2017-04-06T05:10:25.780Z,1013.6
2017-04-06T05:11:27.575Z,1013.6
2017-04-06T05:12:29.380Z,1013.6
2017-04-06T05:13:31.163Z,1013.6
2017-04-06T05:14:32.961Z,1013.7
2017-04-06T05:15:34.777Z,1013.7
2017-04-06T05:16:36.623Z,1013.7
2017-04-06T05:17:38.411Z,1013.7
2017-04-06T05:18:40.202Z,1013.7
2017-04-06T05:19:41.982Z,1013.7
2017-04-06T05:20:43.832Z,1013.7
2017-04-06T05:21:45.663Z,1013.7
2017-04-06T05:22:47.448Z,1013.7
2017-04-06T05:23:49.231Z,1013.7
2017-04-06T05:24:51.022Z,1013.7
2017-04-06T05:25:52.889Z,1013.7
2017-04-06T05:26:55.019Z,1013.7
2017-04-06T05:27:56.807Z,1013.7
2017-04-06T05:28:58.596Z,1013.7
2017-04-06T05:30:00.396Z,1013.7
2017-04-06T05:31:02.219Z,1013.7
2017-04-06T05:32:04.006Z,1013.7
2017-04-06T05:33:05.804Z,1013.7
2017-04-06T05:34:07.592Z,1013.7
2017-04-06T05:35:09.388Z,1013.7
2017-04-06T05:36:11.184Z,1013.7
2017-04-06T05:37:12.982Z,1013.7
2017-04-06T05:38:15.097Z,1013.7
2017-04-06T05:39:16.896Z,1013.8
2017-04-06T05:40:18.697Z,1013.8
2017-04-06T05:41:20.495Z,1013.9
2017-04-06T05:42:22.286Z,1013.8
2017-04-06T05:43:24.083Z,1013.9
2017-04-06T05:44:26.023Z,1013.9
2017-04-06T05:45:27.816Z,1013.8
2017-04-06T05:46:29.612Z,1013.9
2017-04-06T05:47:31.484Z,1013.9
2017-04-06T05:48:33.273Z,1013.9
2017-04-06T05:49:35.058Z,1014
2017-04-06T05:50:36.925Z,1014
2017-04-06T05:51:38.717Z,1014
2017-04-06T05:52:40.596Z,1014
2017-04-06T05:53:42.381Z,1014
2017-04-06T05:54:44.198Z,1014.1
2017-04-06T05:55:45.996Z,1014
2017-04-06T05:56:47.781Z,1014
2017-04-06T05:57:49.581Z,1014
2017-04-06T05:58:51.457Z,1014.1
2017-04-06T05:59:53.250Z,1014.1
2017-04-06T06:00:55.054Z,1014.1
2017-04-06T06:01:56.910Z,1014.1
2017-04-06T06:02:58.706Z,1014.2
2017-04-06T06:04:00.555Z,1014.2
2017-04-06T06:05:02.357Z,1014.2
2017-04-06T06:06:04.135Z,1014.3
2017-04-06T06:07:05.931Z,1014.3
2017-04-06T06:08:07.748Z,1014.4
2017-04-06T06:09:09.536Z,1014.4
2017-04-06T06:10:11.332Z,1014.4
2017-04-06T06:11:13.248Z,1014.3
2017-04-06T06:12:15.053Z,1014.5
2017-04-06T06:13:16.927Z,1014.4
2017-04-06T06:14:18.727Z,1014.4
2017-04-06T06:15:20.941Z,1014.4
2017-04-06T06:16:22.744Z,1014.4
2017-04-06T06:17:24.527Z,1014.5
2017-04-06T06:18:26.312Z,1014.5
2017-04-06T06:19:28.096Z,1014.4
2017-04-06T06:20:29.883Z,1014.5
2017-04-06T06:21:31.784Z,1014.5
2017-04-06T06:22:33.571Z,1014.5
2017-04-06T06:23:35.362Z,1014.5
2017-04-06T06:24:37.248Z,1014.5
2017-04-06T06:25:39.042Z,1014.5
2017-04-06T06:26:40.860Z,1014.5
2017-04-06T06:27:42.658Z,1014.5
2017-04-06T06:28:44.456Z,1014.5
2017-04-06T06:29:46.253Z,1014.6
2017-04-06T06:30:48.141Z,1014.5
2017-04-06T06:31:49.928Z,1014.6
2017-04-06T06:32:51.743Z,1014.5
2017-04-06T06:33:53.538Z,1014.5
2017-04-06T06:34:55.326Z,1014.5
2017-04-06T06:35:57.127Z,1014.5
2017-04-06T06:36:58.932Z,1014.5
2017-04-06T06:38:00.733Z,1014.5
2017-04-06T06:39:02.529Z,1014.5
2017-04-06T06:40:04.314Z,1014.5
2017-04-06T06:41:06.106Z,1014.6
2017-04-06T06:42:07.972Z,1014.5
2017-04-06T06:43:10.097Z,1014.5
2017-04-06T06:44:11.885Z,1014.6
2017-04-06T06:45:13.820Z,1014.6
2017-04-06T06:46:15.972Z,1014.6
2017-04-06T06:47:17.757Z,1014.5
2017-04-06T06:48:19.937Z,1014.6
2017-04-06T06:49:22.064Z,1014.5
2017-04-06T06:50:23.901Z,1014.5
2017-04-06T06:51:25.705Z,1014.5
2017-04-06T06:52:27.491Z,1014.6
2017-04-06T06:53:29.287Z,1014.5
2017-04-06T06:54:31.075Z,1014.5
2017-04-06T06:55:32.881Z,1014.5
2017-04-06T06:56:35.467Z,1014.5
2017-04-06T06:57:37.264Z,1014.5
2017-04-06T06:58:39.079Z,1014.5
2017-04-06T06:59:40.868Z,1014.5
2017-04-06T07:00:42.659Z,1014.5
2017-04-06T07:01:44.442Z,1014.6
2017-04-06T07:02:46.580Z,1014.5
2017-04-06T07:03:48.715Z,1014.5
2017-04-06T07:04:50.635Z,1014.5
2017-04-06T07:05:52.414Z,1014.5
2017-04-06T07:06:54.342Z,1014.5
2017-04-06T07:07:56.138Z,1014.6
2017-04-06T07:08:57.937Z,1014.6
2017-04-06T07:09:59.724Z,1014.6
2017-04-06T07:11:01.857Z,1014.6
2017-04-06T07:12:03.643Z,1014.6
2017-04-06T07:13:05.922Z,1014.5
2017-04-06T07:14:07.706Z,1014.6
2017-04-06T07:15:09.497Z,1014.7
2017-04-06T07:16:11.298Z,1014.7
2017-04-06T07:17:13.107Z,1014.7
2017-04-06T07:18:14.925Z,1014.7
2017-04-06T07:19:16.723Z,1014.8
2017-04-06T07:20:18.527Z,1014.8
2017-04-06T07:21:20.338Z,1014.8
2017-04-06T07:22:22.134Z,1014.9
2017-04-06T07:23:23.925Z,1014.8
2017-04-06T07:24:25.720Z,1014.8
2017-04-06T07:25:27.582Z,1014.8
2017-04-06T07:26:29.374Z,1014.8
2017-04-06T07:27:31.160Z,1014.8
2017-04-06T07:28:32.966Z,1014.8
2017-04-06T07:29:35.108Z,1014.9
2017-04-06T07:30:36.903Z,1014.9
2017-04-06T07:31:38.686Z,1014.9
2017-04-06T07:32:40.490Z,1014.9
2017-04-06T07:33:42.273Z,1014.8
2017-04-06T07:34:44.074Z,1014.9
2017-04-06T07:35:45.926Z,1014.9
2017-04-06T07:36:47.728Z,1014.8
2017-04-06T07:37:49.529Z,1014.9
2017-04-06T07:38:51.322Z,1014.9
2017-04-06T07:39:53.116Z,1014.9
2017-04-06T07:40:54.930Z,1014.9
2017-04-06T07:41:56.855Z,1014.9
2017-04-06T07:42:58.643Z,1014.9
2017-04-06T07:44:00.440Z,1014.8
2017-04-06T07:45:02.226Z,1014.8
2017-04-06T07:46:04.029Z,1014.8
2017-04-06T07:47:06.159Z,1014.8
2017-04-06T07:48:08.143Z,1014.8
2017-04-06T07:49:09.944Z,1014.8
2017-04-06T07:50:11.741Z,1014.9
2017-04-06T07:51:13.527Z,1014.9
2017-04-06T07:52:15.330Z,1014.8
2017-04-06T07:53:17.130Z,1014.8
2017-04-06T07:54:18.922Z,1014.8
2017-04-06T07:55:20.719Z,1014.9
2017-04-06T07:56:22.508Z,1014.9
2017-04-06T07:57:24.310Z,1014.9
2017-04-06T07:58:26.452Z,1014.9
2017-04-06T07:59:28.251Z,1014.9
2017-04-06T08:00:30.286Z,1015
2017-04-06T08:01:32.095Z,1015
2017-04-06T08:02:33.889Z,1015
2017-04-06T08:03:35.680Z,1015
2017-04-06T08:04:37.470Z,1015
2017-04-06T08:05:39.602Z,1015.1
2017-04-06T08:06:41.393Z,1015.1
2017-04-06T08:07:43.185Z,1015.1
2017-04-06T08:08:45.219Z,1015.1
2017-04-06T08:09:47.012Z,1015.1
2017-04-06T08:10:48.810Z,1015.1
2017-04-06T08:11:50.608Z,1015.2
2017-04-06T08:12:52.391Z,1015.2
2017-04-06T08:13:54.537Z,1015.2
2017-04-06T08:14:56.335Z,1015.2
2017-04-06T08:15:58.137Z,1015.3
2017-04-06T08:17:00.412Z,1015.2
2017-04-06T08:18:02.212Z,1015.2
2017-04-06T08:19:04.019Z,1015.2
2017-04-06T08:20:05.817Z,1015.2
2017-04-06T08:21:07.623Z,1015.2
2017-04-06T08:22:09.404Z,1015.2
2017-04-06T08:23:11.205Z,1015.3
2017-04-06T08:24:12.995Z,1015.4
2017-04-06T08:25:15.086Z,1015.4
2017-04-06T08:26:16.880Z,1015.4
2017-04-06T08:27:18.674Z,1015.4
2017-04-06T08:28:20.462Z,1015.4
2017-04-06T08:29:22.260Z,1015.4
2017-04-06T08:30:24.057Z,1015.5
2017-04-06T08:31:26.092Z,1015.4
2017-04-06T08:32:27.879Z,1015.5
2017-04-06T08:33:29.949Z,1015.5
2017-04-06T08:34:31.746Z,1015.5
2017-04-06T08:35:33.551Z,1015.5
2017-04-06T08:36:35.339Z,1015.5
2017-04-06T08:37:37.146Z,1015.6
2017-04-06T08:38:38.951Z,1015.6
2017-04-06T08:39:41.019Z,1015.6
2017-04-06T08:40:42.818Z,1015.6
2017-04-06T08:41:44.611Z,1015.6
2017-04-06T08:42:46.418Z,1015.7
2017-04-06T08:43:48.213Z,1015.6
2017-04-06T08:44:50.360Z,1015.6
2017-04-06T08:45:52.143Z,1015.7
2017-04-06T08:46:53.955Z,1015.6
2017-04-06T08:47:56.061Z,1015.6
2017-04-06T08:48:57.859Z,1015.7
2017-04-06T08:49:59.646Z,1015.6
2017-04-06T08:51:01.460Z,1015.6
2017-04-06T08:52:03.259Z,1015.7
2017-04-06T08:53:05.066Z,1015.6
2017-04-06T08:54:06.875Z,1015.6
2017-04-06T08:55:08.665Z,1015.6
2017-04-06T08:56:10.473Z,1015.7
2017-04-06T08:57:12.537Z,1015.6
2017-04-06T08:58:14.334Z,1015.7
2017-04-06T08:59:16.133Z,1015.7
2017-04-06T09:00:17.939Z,1015.7
2017-04-06T09:01:19.748Z,1015.8
2017-04-06T09:02:21.552Z,1015.7
2017-04-06T09:03:23.462Z,1015.6
2017-04-06T09:04:25.271Z,1015.6
2017-04-06T09:05:27.264Z,1015.7
2017-04-06T09:06:29.076Z,1015.7
2017-04-06T09:07:30.886Z,1015.7
2017-04-06T09:08:32.689Z,1015.8
2017-04-06T09:09:35.166Z,1015.8
2017-04-06T09:10:36.970Z,1015.8
2017-04-06T09:11:38.786Z,1015.8
2017-04-06T09:12:40.590Z,1015.8
2017-04-06T09:13:42.572Z,1015.8
2017-04-06T09:14:44.727Z,1015.8
2017-04-06T09:15:46.538Z,1015.9
2017-04-06T09:16:48.691Z,1015.9
2017-04-06T09:17:50.499Z,1015.9
2017-04-06T09:18:52.309Z,1015.8
2017-04-06T09:19:54.119Z,1015.9
2017-04-06T09:20:55.936Z,1015.9
2017-04-06T09:21:57.755Z,1015.9
2017-04-06T09:22:59.677Z,1015.8
2017-04-06T09:24:01.495Z,1015.9
2017-04-06T09:25:03.297Z,1015.9
2017-04-06T09:26:05.114Z,1015.9
2017-04-06T09:27:06.910Z,1015.9
2017-04-06T09:28:09.058Z,1015.9
2017-04-06T09:29:11.465Z,1015.9
2017-04-06T09:30:13.274Z,1015.9
2017-04-06T09:31:15.073Z,1015.9
2017-04-06T09:32:17.249Z,1015.9
2017-04-06T09:33:19.065Z,1015.8
2017-04-06T09:34:21.159Z,1015.9
2017-04-06T09:35:22.978Z,1015.8
2017-04-06T09:36:24.793Z,1015.8
2017-04-06T09:37:26.609Z,1015.7
2017-04-06T09:38:28.410Z,1015.7
2017-04-06T09:39:30.236Z,1015.8
2017-04-06T09:40:32.040Z,1015.8
2017-04-06T09:41:33.853Z,1015.8
2017-04-06T09:42:35.668Z,1015.8
2017-04-06T09:43:37.479Z,1015.8
2017-04-06T09:44:39.565Z,1015.7
2017-04-06T09:45:41.707Z,1015.8
2017-04-06T09:46:43.514Z,1015.7
2017-04-06T09:47:45.331Z,1015.8
2017-04-06T09:48:47.477Z,1015.9
2017-04-06T09:49:49.286Z,1015.8
2017-04-06T09:50:51.098Z,1015.8
2017-04-06T09:51:52.904Z,1015.7
2017-04-06T09:52:54.713Z,1015.8
2017-04-06T09:53:56.519Z,1015.8
2017-04-06T09:54:58.330Z,1015.7
2017-04-06T09:56:00.468Z,1015.7
2017-04-06T09:57:02.268Z,1015.7
2017-04-06T09:58:04.081Z,1015.8
2017-04-06T09:59:05.898Z,1015.8
2017-04-06T10:00:07.709Z,1015.8
2017-04-06T10:01:09.511Z,1015.8
2017-04-06T10:02:11.319Z,1015.7
2017-04-06T10:03:13.138Z,1015.7
2017-04-06T10:04:15.281Z,1015.6
2017-04-06T10:05:17.100Z,1015.8
2017-04-06T10:06:18.900Z,1015.8
2017-04-06T10:07:20.724Z,1015.8
2017-04-06T10:08:22.527Z,1015.8
2017-04-06T10:09:24.331Z,1015.7
2017-04-06T10:10:26.130Z,1015.7
2017-04-06T10:11:27.932Z,1015.7
2017-04-06T10:12:29.750Z,1015.7
2017-04-06T10:13:31.561Z,1015.8
2017-04-06T10:14:33.716Z,1015.8
2017-04-06T10:15:35.526Z,1015.8
2017-04-06T10:16:37.342Z,1015.8
2017-04-06T10:17:39.141Z,1015.8
2017-04-06T10:18:40.946Z,1015.8
2017-04-06T10:19:42.747Z,1015.8
2017-04-06T10:20:44.570Z,1015.8
2017-04-06T10:21:46.371Z,1015.8
2017-04-06T10:22:48.175Z,1015.7
2017-04-06T10:23:49.981Z,1015.7
2017-04-06T10:24:51.792Z,1015.7
2017-04-06T10:25:53.605Z,1015.6
2017-04-06T10:26:55.413Z,1015.6
2017-04-06T10:27:57.229Z,1015.7
2017-04-06T10:28:59.050Z,1015.7
2017-04-06T10:30:00.866Z,1015.6
2017-04-06T10:31:02.671Z,1015.7
2017-04-06T10:32:04.477Z,1015.7
2017-04-06T10:33:06.286Z,1015.7
2017-04-06T10:34:08.097Z,1015.7
2017-04-06T10:35:09.902Z,1015.7
2017-04-06T10:36:11.715Z,1015.8
2017-04-06T10:37:13.520Z,1015.7
2017-04-06T10:38:15.335Z,1015.7
2017-04-06T10:39:17.149Z,1015.8
2017-04-06T10:40:18.956Z,1015.6
2017-04-06T10:41:20.776Z,1015.6
2017-04-06T10:42:22.913Z,1015.7
2017-04-06T10:43:24.724Z,1015.7
2017-04-06T10:44:26.531Z,1015.7
2017-04-06T10:45:28.350Z,1015.6
2017-04-06T10:46:30.156Z,1015.7
2017-04-06T10:47:31.960Z,1015.6
2017-04-06T10:48:33.783Z,1015.7
2017-04-06T10:49:35.919Z,1015.8
2017-04-06T10:50:37.728Z,1015.7
2017-04-06T10:51:39.535Z,1015.7
2017-04-06T10:52:41.694Z,1015.6
2017-04-06T10:53:43.501Z,1015.7
2017-04-06T10:54:45.307Z,1015.7
2017-04-06T10:55:47.802Z,1015.7
2017-04-06T10:56:49.661Z,1015.6
2017-04-06T10:57:51.849Z,1015.7
2017-04-06T10:58:54.084Z,1015.8
2017-04-06T10:59:57.420Z,1015.8
2017-04-06T11:00:59.912Z,1015.7
2017-04-06T11:02:02.319Z,1015.6
2017-04-06T11:03:04.851Z,1015.7
2017-04-06T11:04:07.896Z,1015.6
2017-04-06T11:05:10.207Z,1015.7
2017-04-06T11:06:12.599Z,1015.7
2017-04-06T11:07:15.000Z,1015.7
2017-04-06T11:08:17.487Z,1015.7
2017-04-06T11:09:19.534Z,1015.7
2017-04-06T11:10:21.832Z,1015.6
2017-04-06T11:11:24.051Z,1015.6
2017-04-06T11:12:26.336Z,1015.7
2017-04-06T11:13:28.472Z,1015.6
2017-04-06T11:14:31.862Z,1015.5
2017-04-06T11:15:34.004Z,1015.6
2017-04-06T11:16:36.518Z,1015.7
2017-04-06T11:17:38.785Z,1015.6
2017-04-06T11:18:40.870Z,1015.6
2017-04-06T11:19:42.971Z,1015.6
2017-04-06T11:20:45.058Z,1015.6
2017-04-06T11:21:47.505Z,1015.6
2017-04-06T11:22:49.864Z,1015.5
2017-04-06T11:23:52.235Z,1015.5
2017-04-06T11:24:55.098Z,1015.6
2017-04-06T11:25:58.212Z,1015.6
2017-04-06T11:27:00.126Z,1015.6
2017-04-06T11:28:02.051Z,1015.5
2017-04-06T11:29:04.604Z,1015.5
2017-04-06T11:30:06.972Z,1015.5
2017-04-06T11:31:08.959Z,1015.5
2017-04-06T11:32:11.143Z,1015.5
2017-04-06T11:33:13.624Z,1015.5
2017-04-06T11:34:16.220Z,1015.5
2017-04-06T11:35:18.130Z,1015.5
2017-04-06T11:36:20.101Z,1015.5
2017-04-06T11:37:22.002Z,1015.4
2017-04-06T11:38:23.819Z,1015.5
2017-04-06T11:39:25.970Z,1015.4
2017-04-06T11:40:27.783Z,1015.4
2017-04-06T11:41:29.597Z,1015.4
2017-04-06T11:42:31.413Z,1015.4
2017-04-06T11:43:33.561Z,1015.4
2017-04-06T11:44:35.721Z,1015.4
2017-04-06T11:45:37.535Z,1015.3
2017-04-06T11:46:39.422Z,1015.3
2017-04-06T11:47:41.239Z,1015.3
2017-04-06T11:48:43.047Z,1015.3
2017-04-06T11:49:44.870Z,1015.3
2017-04-06T11:50:46.700Z,1015.4
2017-04-06T11:51:48.510Z,1015.4
2017-04-06T11:52:50.338Z,1015.5
2017-04-06T11:53:52.157Z,1015.4
2017-04-06T11:54:53.973Z,1015.2
2017-04-06T11:55:55.802Z,1015.3
2017-04-06T11:56:57.597Z,1015.3
2017-04-06T11:57:59.421Z,1015.3
2017-04-06T11:59:01.229Z,1015.3
2017-04-06T12:00:03.110Z,1015.3
2017-04-06T12:01:04.917Z,1015.3
2017-04-06T12:02:06.734Z,1015.3
2017-04-06T12:03:08.544Z,1015.3
2017-04-06T12:04:10.698Z,1015.3
2017-04-06T12:05:12.526Z,1015.3
2017-04-06T12:06:14.699Z,1015.3
2017-04-06T12:07:16.575Z,1015.3
2017-04-06T12:08:18.473Z,1015.3
2017-04-06T12:09:20.633Z,1015.3
2017-04-06T12:10:22.799Z,1015.3
2017-04-06T12:11:24.621Z,1015.2
2017-04-06T12:12:26.429Z,1015.2
2017-04-06T12:13:28.247Z,1015.2
2017-04-06T12:14:30.054Z,1015.2
2017-04-06T12:15:31.943Z,1015.2
2017-04-06T12:16:33.763Z,1015.2
2017-04-06T12:17:35.598Z,1015.2
2017-04-06T12:18:37.415Z,1015.2
2017-04-06T12:19:39.238Z,1015.3
2017-04-06T12:20:41.049Z,1015.2
2017-04-06T12:21:42.881Z,1015.3
2017-04-06T12:22:45.046Z,1015.3
2017-04-06T12:23:46.858Z,1015.2
2017-04-06T12:24:49.009Z,1015.1
2017-04-06T12:25:50.823Z,1015.1
2017-04-06T12:26:52.638Z,1015.1
2017-04-06T12:27:54.465Z,1015
2017-04-06T12:28:56.268Z,1015
2017-04-06T12:29:58.073Z,1015
2017-04-06T12:30:59.891Z,1015.1
2017-04-06T12:32:02.056Z,1015.1
2017-04-06T12:33:03.864Z,1015.1
2017-04-06T12:34:05.682Z,1015.2
2017-04-06T12:35:07.831Z,1015
2017-04-06T12:36:09.642Z,1015.1
2017-04-06T12:37:11.488Z,1015.1
2017-04-06T12:38:13.291Z,1015.1
2017-04-06T12:39:15.116Z,1015.1
2017-04-06T12:40:16.916Z,1015.1
2017-04-06T12:41:18.743Z,1015
2017-04-06T12:42:20.550Z,1015
2017-04-06T12:43:22.474Z,1015
2017-04-06T12:44:24.707Z,1015
2017-04-06T12:45:27.982Z,1014.9
2017-04-06T12:46:30.708Z,1014.9
2017-04-06T12:47:33.333Z,1015
2017-04-06T12:48:36.839Z,1015
2017-04-06T12:49:39.156Z,1014.9
2017-04-06T12:50:41.968Z,1014.8
2017-04-06T12:51:44.764Z,1014.9
2017-04-06T12:52:48.126Z,1014.9
2017-04-06T12:53:50.818Z,1014.9
2017-04-06T12:54:53.433Z,1014.9
2017-04-06T12:55:57.860Z,1014.9